Terminal Aerodrome Forecast
Issued by NWS

Home | Current Version | Previous Version | Text Only | Print | Product List | Glossary On
Versions: 1 2 3 4 5 6 7 8 9 10 11 12 13
000
FTUS46 KOTX 291134
TAFSFF
TAF
KSFF 291134Z 2912/3012 VRB03KT P6SM BKN090 BKN120
     FM291500 21006KT P6SM SCT050 BKN150
     FM291900 23010G18KT P6SM VCSH SCT040 BKN060
     FM292300 24013G20KT P6SM SCT060
     FM300300 27008KT P6SM FEW060
     FM300900 VRB04KT P6SM FEW090=

USA.gov is the U.S. government's official web portal to all federal, state and local government web resources and services.